Time;durP1;ratioP1;P1;durP2;ratioP2;P2;SDS_P1;SDS_P2;PMS_P1;PMS_P2;Temp;Humidity;BMP_temperature;BMP_pressure;BME280_temperature;BME280_humidity;BME280_pressure;Samples;Min_cycle;Max_cycle;Signal;HPM_P1;HPM_P2
2021/04/12 00:03:27;;;;;;;15.63;7.60;;;;;;;;;;8322513;28;20505;-70
2021/04/12 00:07:39;;;;;;;15.50;7.60;;;;;;;;;;8321351;28;20377;-69
2021/04/12 00:12:03;;;;;;;12.32;5.60;;;;;;;;;;8323336;28;20470;-69
2021/04/12 00:16:35;;;;;;;8.77;5.18;;;;;;;;;;8321355;28;20382;-69
2021/04/12 00:21:04;;;;;;;12.45;5.35;;;;;;;;;;8322712;28;20362;-69
2021/04/12 00:25:32;;;;;;;8.68;4.72;;;;;;;;;;8320868;28;20473;-69
2021/04/12 00:29:57;;;;;;;12.05;5.10;;;;;;;;;;8321745;28;20480;-70
2021/04/12 00:34:23;;;;;;;10.05;5.15;;;;;;;;;;8290274;28;20489;-69
2021/04/12 00:38:58;;;;;;;9.40;4.63;;;;;;;;;;8321894;28;20056;-69
2021/04/12 00:43:19;;;;;;;11.35;5.45;;;;;;;;;;8323020;28;20497;-71
2021/04/12 00:47:57;;;;;;;17.10;8.68;;;;;;;;;;8320886;28;20056;-69
2021/04/12 00:52:37;;;;;;;9.88;5.72;;;;;;;;;;8305980;28;20060;-69
2021/04/12 00:57:06;;;;;;;15.30;6.90;;;;;;;;;;8321218;28;20434;-70
2021/04/12 01:01:12;;;;;;;7.22;4.22;;;;;;;;;;8303799;28;20060;-69
2021/04/12 01:05:33;;;;;;;6.72;4.22;;;;;;;;;;8302944;28;20387;-69
2021/04/12 01:10:34;;;;;;;9.07;4.03;;;;;;;;;;8294363;28;20370;-69
2021/04/12 01:15:29;;;;;;;8.25;4.25;;;;;;;;;;8296524;28;20360;-69
2021/04/12 01:20:14;;;;;;;10.75;5.10;;;;;;;;;;8297066;28;20052;-69
2021/04/12 01:24:43;;;;;;;10.57;5.70;;;;;;;;;;8293688;28;20048;-69
2021/04/12 01:29:34;;;;;;;8.50;5.53;;;;;;;;;;8293875;28;20354;-69
2021/04/12 01:34:40;;;;;;;10.02;5.10;;;;;;;;;;8295381;28;20374;-69
2021/04/12 01:38:56;;;;;;;10.55;5.53;;;;;;;;;;8224035;28;20498;-69
2021/04/12 01:43:24;;;;;;;6.32;4.30;;;;;;;;;;8246395;28;20061;-70
2021/04/12 01:48:13;;;;;;;13.30;5.13;;;;;;;;;;8292429;28;20398;-69
2021/04/12 01:53:15;;;;;;;8.75;5.10;;;;;;;;;;8284030;28;20060;-70
2021/04/12 01:57:47;;;;;;;9.38;5.13;;;;;;;;;;8293102;28;20379;-69
2021/04/12 02:01:57;;;;;;;12.30;5.65;;;;;;;;;;8294009;28;20474;-69
2021/04/12 02:06:01;;;;;;;7.55;4.80;;;;;;;;;;8292966;28;20355;-69
2021/04/12 02:10:27;;;;;;;10.88;4.78;;;;;;;;;;8295317;28;20459;-69
2021/04/12 02:14:58;;;;;;;12.30;5.15;;;;;;;;;;8294978;28;20439;-69
2021/04/12 02:19:46;;;;;;;9.07;4.65;;;;;;;;;;8291326;28;20048;-68
2021/04/12 02:24:25;;;;;;;13.52;7.05;;;;;;;;;;8290986;28;20375;-69
2021/04/12 02:29:07;;;;;;;8.55;5.25;;;;;;;;;;8307158;28;20470;-70
2021/04/12 02:33:45;;;;;;;9.57;5.60;;;;;;;;;;8293082;28;20367;-69
2021/04/12 02:38:20;;;;;;;10.75;5.55;;;;;;;;;;8291746;28;20317;-68
2021/04/12 02:42:59;;;;;;;7.32;4.78;;;;;;;;;;8293641;28;20457;-69
2021/04/12 02:47:27;;;;;;;8.80;4.95;;;;;;;;;;8293974;28;20359;-69
2021/04/12 02:51:47;;;;;;;9.00;5.22;;;;;;;;;;8292209;28;20451;-69
2021/04/12 02:56:38;;;;;;;7.18;4.68;;;;;;;;;;8291590;28;20115;-68
2021/04/12 03:00:52;;;;;;;7.63;4.40;;;;;;;;;;8288232;28;20068;-68
2021/04/12 03:05:49;;;;;;;7.63;4.78;;;;;;;;;;8292001;28;20375;-69
2021/04/12 03:10:52;;;;;;;7.53;4.75;;;;;;;;;;8291631;28;20057;-68
2021/04/12 03:15:38;;;;;;;13.48;6.35;;;;;;;;;;8291006;28;20459;-68
2021/04/12 03:20:39;;;;;;;7.72;4.85;;;;;;;;;;8289937;28;20071;-68
2021/04/12 03:25:02;;;;;;;9.90;5.32;;;;;;;;;;8291729;28;20447;-68
2021/04/12 03:29:44;;;;;;;10.38;5.28;;;;;;;;;;8290890;28;20361;-70
2021/04/12 03:33:58;;;;;;;8.05;4.43;;;;;;;;;;8289037;28;20483;-69
2021/04/12 03:38:07;;;;;;;7.75;4.65;;;;;;;;;;8292403;28;20056;-69
2021/04/12 03:43:00;;;;;;;14.95;5.75;;;;;;;;;;8289629;28;20082;-70
2021/04/12 03:47:24;;;;;;;10.15;5.30;;;;;;;;;;8274394;28;20440;-69
2021/04/12 03:51:36;;;;;;;12.30;5.60;;;;;;;;;;8291970;28;20367;-69
2021/04/12 03:55:59;;;;;;;8.98;5.60;;;;;;;;;;8290714;28;20397;-68
2021/04/12 04:01:21;;;;;;;13.90;6.05;;;;;;;;;;8288864;28;20383;-71
2021/04/12 04:06:10;;;;;;;9.73;4.97;;;;;;;;;;8274621;28;20375;-71
2021/04/12 04:10:51;;;;;;;10.68;6.53;;;;;;;;;;8290022;28;20363;-69
2021/04/12 04:15:33;;;;;;;12.90;6.10;;;;;;;;;;8291297;28;20485;-69
2021/04/12 04:20:19;;;;;;;14.77;5.78;;;;;;;;;;8290707;28;20455;-69
2021/04/12 04:24:51;;;;;;;14.20;5.95;;;;;;;;;;8283490;28;20471;-70
2021/04/12 04:29:32;;;;;;;11.73;6.85;;;;;;;;;;8290117;28;20440;-69
2021/04/12 04:33:57;;;;;;;14.43;6.47;;;;;;;;;;8292810;28;20379;-69
2021/04/12 04:38:40;;;;;;;11.35;6.10;;;;;;;;;;8291767;28;20447;-69
2021/04/12 04:43:10;;;;;;;12.20;6.68;;;;;;;;;;8295969;28;20483;-69
2021/04/12 04:47:54;;;;;;;13.35;6.28;;;;;;;;;;8295325;28;20402;-70
2021/04/12 04:52:34;;;;;;;15.35;6.38;;;;;;;;;;8296981;28;20407;-69
2021/04/12 04:57:02;;;;;;;11.65;6.60;;;;;;;;;;8289977;28;20501;-69
2021/04/12 05:01:15;;;;;;;39.92;27.88;;;;;;;;;;8293059;28;20483;-70
2021/04/12 05:06:09;;;;;;;11.57;6.20;;;;;;;;;;8295850;28;20454;-70
2021/04/12 05:10:30;;;;;;;12.55;5.43;;;;;;;;;;8295710;28;20505;-70
2021/04/12 05:15:15;;;;;;;8.90;5.03;;;;;;;;;;8293878;28;20470;-69
2021/04/12 05:20:09;;;;;;;10.45;5.65;;;;;;;;;;8275185;28;20056;-69
2021/04/12 05:25:10;;;;;;;8.38;4.43;;;;;;;;;;8295257;28;20391;-69
2021/04/12 05:29:20;;;;;;;10.32;5.50;;;;;;;;;;8286491;28;20459;-70
2021/04/12 05:34:23;;;;;;;10.27;4.65;;;;;;;;;;8322116;28;20387;-70
2021/04/12 05:39:03;;;;;;;10.75;4.82;;;;;;;;;;8306939;28;20345;-69
2021/04/12 05:43:52;;;;;;;10.27;4.70;;;;;;;;;;8324562;28;20401;-69
2021/04/12 05:48:23;;;;;;;9.35;4.50;;;;;;;;;;8298337;28;20072;-70
2021/04/12 05:53:08;;;;;;;7.32;3.88;;;;;;;;;;8325513;28;20367;-69
2021/04/12 05:57:46;;;;;;;7.00;3.67;;;;;;;;;;8324924;28;20056;-71
2021/04/12 06:02:32;;;;;;;12.05;4.22;;;;;;;;;;8326267;28;20474;-69
2021/04/12 06:06:57;;;;;;;6.22;3.60;;;;;;;;;;8311210;28;20328;-69
2021/04/12 06:11:35;;;;;;;9.23;3.67;;;;;;;;;;8325709;28;20442;-69
2021/04/12 06:16:10;;;;;;;6.78;4.05;;;;;;;;;;8326451;28;20386;-69
2021/04/12 06:20:39;;;;;;;9.98;3.13;;;;;;;;;;8326752;28;20052;-70
2021/04/12 06:25:39;;;;;;;7.00;3.85;;;;;;;;;;8325768;28;20459;-69
2021/04/12 06:30:18;;;;;;;9.38;4.43;;;;;;;;;;8311657;28;20348;-69
2021/04/12 06:35:07;;;;;;;8.52;3.72;;;;;;;;;;8325140;28;20085;-68
2021/04/12 06:39:33;;;;;;;7.78;3.80;;;;;;;;;;8324350;28;20454;-69
2021/04/12 06:44:08;;;;;;;7.40;3.80;;;;;;;;;;8325324;28;20078;-70
2021/04/12 06:49:09;;;;;;;7.25;3.33;;;;;;;;;;8325847;28;20070;-70
2021/04/12 06:54:09;;;;;;;7.03;3.60;;;;;;;;;;8323831;28;20343;-69
2021/04/12 06:58:45;;;;;;;9.20;3.65;;;;;;;;;;8301098;28;20381;-70
2021/04/12 07:03:23;;;;;;;10.13;3.10;;;;;;;;;;8324168;28;20051;-71
2021/04/12 07:07:43;;;;;;;8.57;3.58;;;;;;;;;;8324552;28;20078;-71
2021/04/12 07:12:58;;;;;;;7.38;3.35;;;;;;;;;;8308549;28;20056;-69
2021/04/12 07:17:33;;;;;;;9.15;3.38;;;;;;;;;;8323809;28;20374;-70
2021/04/12 07:22:07;;;;;;;8.60;2.67;;;;;;;;;;8323381;28;20466;-71
2021/04/12 07:26:31;;;;;;;10.30;3.90;;;;;;;;;;8324686;28;20370;-69
2021/04/12 07:31:16;;;;;;;9.38;3.85;;;;;;;;;;8325236;28;20466;-70
2021/04/12 07:35:43;;;;;;;7.85;3.65;;;;;;;;;;8324986;28;20451;-70
2021/04/12 07:40:38;;;;;;;11.48;4.88;;;;;;;;;;8324652;28;20446;-70
2021/04/12 07:45:18;;;;;;;11.80;3.78;;;;;;;;;;8323276;28;20488;-70
2021/04/12 07:49:45;;;;;;;10.90;3.25;;;;;;;;;;8323148;28;20356;-70
2021/04/12 07:54:21;;;;;;;8.02;2.92;;;;;;;;;;8322733;28;20451;-69
2021/04/12 07:59:12;;;;;;;10.68;4.10;;;;;;;;;;8323538;28;20454;-70
2021/04/12 08:03:57;;;;;;;11.93;3.45;;;;;;;;;;8324634;28;20474;-69
2021/04/12 08:08:19;;;;;;;8.82;3.17;;;;;;;;;;8321967;28;20333;-69
2021/04/12 08:13:00;;;;;;;10.32;2.70;;;;;;;;;;8323284;28;20377;-70
2021/04/12 08:18:08;;;;;;;8.57;2.72;;;;;;;;;;8331218;28;20044;-70
2021/04/12 08:22:28;;;;;;;6.72;2.35;;;;;;;;;;8331604;28;20060;-68
2021/04/12 08:27:24;;;;;;;7.80;2.17;;;;;;;;;;8332622;28;20477;-71
2021/04/12 08:32:09;;;;;;;4.05;2.50;;;;;;;;;;8330856;28;20363;-70
2021/04/12 08:37:05;;;;;;;5.50;1.80;;;;;;;;;;8266151;28;20502;-68
2021/04/12 08:41:37;;;;;;;8.25;2.28;;;;;;;;;;8330277;28;20078;-70
2021/04/12 08:46:21;;;;;;;5.72;2.92;;;;;;;;;;8330765;28;20467;-69
2021/04/12 08:51:07;;;;;;;9.13;4.07;;;;;;;;;;8329632;28;20477;-69
2021/04/12 08:55:45;;;;;;;13.27;5.43;;;;;;;;;;8278748;28;20056;-68
2021/04/12 09:00:30;;;;;;;6.95;3.60;;;;;;;;;;8330044;28;20173;-68
2021/04/12 09:04:59;;;;;;;6.60;3.95;;;;;;;;;;8329758;28;20466;-68
2021/04/12 09:09:43;;;;;;;6.68;3.53;;;;;;;;;;8328904;28;20386;-68
2021/04/12 09:14:24;;;;;;;10.32;3.92;;;;;;;;;;8328512;28;20370;-69
2021/04/12 09:18:41;;;;;;;4.97;3.40;;;;;;;;;;8328810;28;20469;-68
2021/04/12 09:23:18;;;;;;;8.13;2.10;;;;;;;;;;8329727;28;20469;-68
2021/04/12 09:28:12;;;;;;;3.55;2.00;;;;;;;;;;8328148;28;20413;-68
2021/04/12 09:32:58;;;;;;;5.60;2.75;;;;;;;;;;8329612;28;20478;-69
2021/04/12 09:37:40;;;;;;;6.95;2.17;;;;;;;;;;8327744;28;20401;-69
2021/04/12 09:42:35;;;;;;;6.40;3.30;;;;;;;;;;8327924;28;20063;-69
2021/04/12 09:46:42;;;;;;;5.93;2.65;;;;;;;;;;8330118;28;20389;-68
2021/04/12 09:51:26;;;;;;;10.77;2.00;;;;;;;;;;8327930;28;20430;-68
2021/04/12 09:55:52;;;;;;;7.03;2.42;;;;;;;;;;8325010;28;20372;-69
2021/04/12 10:00:29;;;;;;;7.30;2.20;;;;;;;;;;8326992;28;20052;-68
2021/04/12 10:05:10;;;;;;;4.35;2.30;;;;;;;;;;8269924;28;20360;-69
2021/04/12 10:09:23;;;;;;;7.70;2.67;;;;;;;;;;8326346;28;20075;-68
2021/04/12 10:13:50;;;;;;;6.53;2.50;;;;;;;;;;8328625;28;20435;-70
2021/04/12 10:18:22;;;;;;;8.40;2.95;;;;;;;;;;8325711;28;20481;-68
2021/04/12 10:22:59;;;;;;;10.93;3.28;;;;;;;;;;8326100;28;20462;-68
2021/04/12 10:27:36;;;;;;;10.75;4.32;;;;;;;;;;8325833;28;20482;-68
2021/04/12 10:31:52;;;;;;;10.50;4.07;;;;;;;;;;8325669;28;20048;-68
2021/04/12 10:36:05;;;;;;;13.05;5.28;;;;;;;;;;8324884;28;20362;-69
2021/04/12 10:40:24;;;;;;;10.40;4.10;;;;;;;;;;8324583;28;20425;-69
2021/04/12 10:44:49;;;;;;;7.80;3.78;;;;;;;;;;8328438;28;20382;-68
2021/04/12 10:49:17;;;;;;;12.27;3.92;;;;;;;;;;8327170;28;20443;-69
2021/04/12 10:53:41;;;;;;;16.15;6.95;;;;;;;;;;8326206;28;20060;-68
2021/04/12 10:58:00;;;;;;;20.10;9.07;;;;;;;;;;8323641;28;20412;-68
2021/04/12 11:03:00;;;;;;;8.55;3.60;;;;;;;;;;8259961;28;20341;-69
2021/04/12 11:07:21;;;;;;;14.30;5.78;;;;;;;;;;8241841;28;20505;-68
2021/04/12 11:11:49;;;;;;;9.48;3.58;;;;;;;;;;8259175;28;20384;-69
2021/04/12 11:16:06;;;;;;;11.82;4.25;;;;;;;;;;8258837;28;20464;-68
2021/04/12 11:20:15;;;;;;;10.10;4.70;;;;;;;;;;8258652;28;20402;-68
2021/04/12 11:24:36;;;;;;;8.10;3.05;;;;;;;;;;8256857;28;20053;-68
2021/04/12 11:28:59;;;;;;;11.05;3.50;;;;;;;;;;8257074;28;20462;-68
2021/04/12 11:33:41;;;;;;;14.48;4.40;;;;;;;;;;8258148;28;20407;-69
2021/04/12 11:38:18;;;;;;;7.97;3.60;;;;;;;;;;8257959;28;20471;-69
2021/04/12 11:42:33;;;;;;;11.65;4.38;;;;;;;;;;8250801;28;20071;-69
2021/04/12 11:47:07;;;;;;;14.77;4.47;;;;;;;;;;8257617;28;20341;-69
2021/04/12 11:52:11;;;;;;;10.63;3.65;;;;;;;;;;8258855;28;20456;-68
2021/04/12 11:56:45;;;;;;;7.85;3.40;;;;;;;;;;8245730;28;20466;-68
2021/04/12 12:01:01;;;;;;;16.10;4.53;;;;;;;;;;8303756;28;20474;-69
2021/04/12 12:05:31;;;;;;;11.73;4.30;;;;;;;;;;8321199;28;20048;-69
2021/04/12 12:09:50;;;;;;;12.23;5.85;;;;;;;;;;8322241;28;20048;-68
2021/04/12 12:14:22;;;;;;;13.50;5.57;;;;;;;;;;8322845;28;20059;-69
2021/04/12 12:18:37;;;;;;;11.40;5.80;;;;;;;;;;8252100;28;20455;-69
2021/04/12 12:23:19;;;;;;;10.80;6.30;;;;;;;;;;8237411;28;20460;-69
2021/04/12 12:27:33;;;;;;;15.15;7.28;;;;;;;;;;8223225;28;20470;-70
2021/04/12 12:32:11;;;;;;;10.23;7.25;;;;;;;;;;8235294;28;20056;-69
2021/04/12 12:36:39;;;;;;;11.15;6.28;;;;;;;;;;8252111;28;20562;-70
2021/04/12 12:40:53;;;;;;;12.80;5.90;;;;;;;;;;8237622;28;20623;-70
2021/04/12 12:45:29;;;;;;;10.68;5.97;;;;;;;;;;8237372;28;20474;-68
2021/04/12 12:49:39;;;;;;;24.52;14.13;;;;;;;;;;8297156;28;20500;-69
2021/04/12 12:53:50;;;;;;;15.75;6.70;;;;;;;;;;8320475;28;20056;-69
2021/04/12 12:57:58;;;;;;;11.98;7.63;;;;;;;;;;8304830;28;20366;-69
2021/04/12 13:02:20;;;;;;;13.27;7.78;;;;;;;;;;8325326;28;20386;-69
2021/04/12 13:06:33;;;;;;;20.13;8.07;;;;;;;;;;8328027;28;20375;-69
2021/04/12 13:10:49;;;;;;;26.85;8.02;;;;;;;;;;8326637;28;20458;-68
2021/04/12 13:14:53;;;;;;;17.65;8.07;;;;;;;;;;8328035;28;20493;-69
2021/04/12 13:19:05;;;;;;;20.10;11.57;;;;;;;;;;8310448;28;20068;-69
2021/04/12 13:23:17;;;;;;;20.00;10.00;;;;;;;;;;8328892;28;20382;-68
2021/04/12 13:27:24;;;;;;;13.82;7.70;;;;;;;;;;8326457;28;20463;-69
2021/04/12 13:31:39;;;;;;;16.60;9.63;;;;;;;;;;8327397;28;20078;-69
2021/04/12 13:35:45;;;;;;;13.35;7.40;;;;;;;;;;8326951;28;20367;-69
2021/04/12 13:40:02;;;;;;;13.05;8.15;;;;;;;;;;8327339;28;20370;-69
2021/04/12 13:44:11;;;;;;;29.07;14.10;;;;;;;;;;8325188;28;20344;-69
2021/04/12 13:48:27;;;;;;;25.60;12.95;;;;;;;;;;8325779;28;20470;-69
2021/04/12 13:52:32;;;;;;;23.45;11.52;;;;;;;;;;8308912;28;20087;-69
2021/04/12 13:56:56;;;;;;;16.75;10.18;;;;;;;;;;8325447;28;20060;-69
2021/04/12 14:01:18;;;;;;;16.40;9.82;;;;;;;;;;8327083;28;20354;-69
2021/04/12 14:05:42;;;;;;;26.42;12.18;;;;;;;;;;8326307;28;20070;-69
2021/04/12 14:10:04;;;;;;;18.30;10.35;;;;;;;;;;8308826;28;20366;-68
2021/04/12 14:14:55;;;;;;;15.65;9.65;;;;;;;;;;8326840;28;20048;-70
2021/04/12 14:19:10;;;;;;;18.85;9.02;;;;;;;;;;8307704;28;20371;-70
2021/04/12 14:23:32;;;;;;;20.02;9.02;;;;;;;;;;8325708;28;20060;-70
2021/04/12 14:27:50;;;;;;;15.30;8.75;;;;;;;;;;8324644;28;20389;-70
2021/04/12 14:32:11;;;;;;;17.05;9.32;;;;;;;;;;8323638;28;20425;-70
2021/04/12 14:36:26;;;;;;;13.25;8.73;;;;;;;;;;8326332;28;20394;-70
2021/04/12 14:40:34;;;;;;;16.63;9.02;;;;;;;;;;8324578;28;20383;-70
2021/04/12 14:45:05;;;;;;;15.70;8.27;;;;;;;;;;8326123;28;20470;-70
2021/04/12 14:49:12;;;;;;;17.45;8.85;;;;;;;;;;8323454;28;20378;-70
2021/04/12 14:53:26;;;;;;;10.80;6.68;;;;;;;;;;8326206;28;20465;-69
2021/04/12 14:57:39;;;;;;;14.93;7.32;;;;;;;;;;8323727;28;20074;-70
2021/04/12 15:01:46;;;;;;;18.30;7.25;;;;;;;;;;8324159;28;20401;-70
2021/04/12 15:06:08;;;;;;;12.55;5.78;;;;;;;;;;8323416;28;20378;-69
2021/04/12 15:10:33;;;;;;;11.15;7.03;;;;;;;;;;8323067;28;20070;-70
2021/04/12 15:15:13;;;;;;;11.80;6.32;;;;;;;;;;8324049;28;20462;-70
2021/04/12 15:19:44;;;;;;;11.23;6.93;;;;;;;;;;8321879;28;20413;-71
2021/04/12 15:24:01;;;;;;;12.98;6.93;;;;;;;;;;8322130;28;20386;-70
2021/04/12 15:28:11;;;;;;;11.50;6.93;;;;;;;;;;8323087;28;20055;-70
2021/04/12 15:32:22;;;;;;;16.95;8.48;;;;;;;;;;8322010;28;20378;-70
2021/04/12 15:36:39;;;;;;;15.82;10.00;;;;;;;;;;8323252;28;20056;-70
2021/04/12 15:41:06;;;;;;;24.58;12.45;;;;;;;;;;8324496;28;20521;-69
2021/04/12 15:45:34;;;;;;;22.98;13.75;;;;;;;;;;8322141;28;20475;-70
2021/04/12 15:49:49;;;;;;;25.25;13.07;;;;;;;;;;8324970;28;20456;-71
2021/04/12 15:54:17;;;;;;;26.77;15.45;;;;;;;;;;8321286;28;20466;-70
2021/04/12 15:58:43;;;;;;;28.60;16.33;;;;;;;;;;8321724;28;20078;-70
2021/04/12 16:02:54;;;;;;;33.72;18.42;;;;;;;;;;8322528;28;20470;-70
2021/04/12 16:07:18;;;;;;;34.80;17.70;;;;;;;;;;8321566;28;20390;-70
2021/04/12 16:12:02;;;;;;;37.63;20.35;;;;;;;;;;8323372;28;20051;-70
2021/04/12 16:16:14;;;;;;;30.38;17.50;;;;;;;;;;8282330;28;20382;-70
2021/04/12 16:20:31;;;;;;;32.72;19.67;;;;;;;;;;8321203;28;20347;-70
2021/04/12 16:25:04;;;;;;;48.05;26.23;;;;;;;;;;8321748;28;20455;-69
2021/04/12 16:29:28;;;;;;;39.22;21.95;;;;;;;;;;8322287;28;20382;-69
2021/04/12 16:33:42;;;;;;;59.42;28.75;;;;;;;;;;8323959;28;20478;-71
2021/04/12 16:38:16;;;;;;;38.38;23.20;;;;;;;;;;8327523;28;20435;-69
2021/04/12 16:42:25;;;;;;;42.78;22.08;;;;;;;;;;8314949;28;20447;-69
2021/04/12 16:46:40;;;;;;;35.60;20.63;;;;;;;;;;8328822;28;20374;-69
2021/04/12 16:50:49;;;;;;;36.10;18.77;;;;;;;;;;8328286;28;20070;-70
2021/04/12 16:55:26;;;;;;;36.85;18.23;;;;;;;;;;8327680;28;20390;-70
2021/04/12 16:59:44;;;;;;;30.25;17.63;;;;;;;;;;8327221;28;20360;-69
2021/04/12 17:04:05;;;;;;;39.10;20.30;;;;;;;;;;8327211;28;20064;-69
2021/04/12 17:08:16;;;;;;;73.32;27.42;;;;;;;;;;8327388;28;20470;-69
2021/04/12 17:12:26;;;;;;;58.17;30.25;;;;;;;;;;8328852;28;20366;-69
2021/04/12 17:16:50;;;;;;;38.40;20.10;;;;;;;;;;8326705;28;20386;-70
2021/04/12 17:21:12;;;;;;;51.63;24.75;;;;;;;;;;8326435;28;20344;-69
2021/04/12 17:25:56;;;;;;;40.80;20.90;;;;;;;;;;8327820;28;20405;-69
2021/04/12 17:30:30;;;;;;;40.85;21.58;;;;;;;;;;8313593;28;20454;-70
2021/04/12 17:34:44;;;;;;;46.70;24.20;;;;;;;;;;8327375;28;20459;-70
2021/04/12 17:38:55;;;;;;;27.23;15.90;;;;;;;;;;8326883;28;20471;-70
2021/04/12 17:43:27;;;;;;;24.30;14.63;;;;;;;;;;8327728;28;20052;-70
2021/04/12 17:47:46;;;;;;;26.90;15.23;;;;;;;;;;8324536;28;20371;-69
2021/04/12 17:52:07;;;;;;;27.92;17.98;;;;;;;;;;8325672;28;20052;-69
2021/04/12 17:56:19;;;;;;;37.05;20.08;;;;;;;;;;8327484;28;20075;-69
2021/04/12 18:00:44;;;;;;;39.28;20.30;;;;;;;;;;8325948;28;20369;-69
2021/04/12 18:04:56;;;;;;;27.15;16.15;;;;;;;;;;8326647;28;20366;-70
2021/04/12 18:09:16;;;;;;;27.23;15.75;;;;;;;;;;8325518;28;20067;-69
2021/04/12 18:13:23;;;;;;;42.95;21.77;;;;;;;;;;8327958;28;20355;-69
2021/04/12 18:17:36;;;;;;;70.63;30.73;;;;;;;;;;8325241;28;20370;-69
2021/04/12 18:21:56;;;;;;;31.13;16.13;;;;;;;;;;8326275;28;20396;-69
2021/04/12 18:26:16;;;;;;;25.90;14.20;;;;;;;;;;8324796;28;20052;-68
2021/04/12 18:30:32;;;;;;;21.10;12.10;;;;;;;;;;8324588;28;20459;-69
2021/04/12 18:34:51;;;;;;;41.65;15.20;;;;;;;;;;8309443;28;20472;-69
2021/04/12 18:39:14;;;;;;;;;;;;;;;;;;8324768;28;20467;-69
2021/04/12 18:43:32;;;;;;;18.40;11.35;;;;;;;;;;8310023;28;20266;-69
2021/04/12 18:48:03;;;;;;;;;;;;;;;;;;8325406;28;20493;-68
2021/04/12 18:52:14;;;;;;;28.52;15.45;;;;;;;;;;8325802;28;20253;-68
2021/04/12 18:56:29;;;;;;;32.45;15.57;;;;;;;;;;8324981;28;20047;-69
2021/04/12 19:01:13;;;;;;;32.42;17.27;;;;;;;;;;8324527;28;20387;-69
2021/04/12 19:06:02;;;;;;;27.77;14.95;;;;;;;;;;8324804;28;20336;-69
2021/04/12 19:10:33;;;;;;;28.58;15.38;;;;;;;;;;8324951;28;20052;-70
2021/04/12 19:14:43;;;;;;;32.92;14.85;;;;;;;;;;8324301;28;20446;-69
2021/04/12 19:19:11;;;;;;;;;;;;;;;;;;8325257;28;20500;-68
2021/04/12 19:24:25;;;;;;;27.00;15.65;;;;;;;;;;8309466;28;20357;-67
2021/04/12 19:29:12;;;;;;;16.63;11.23;;;;;;;;;;8306822;28;20467;-70
2021/04/12 19:34:04;;;;;;;23.38;13.20;;;;;;;;;;8324565;28;20059;-70
2021/04/12 19:38:59;;;;;;;38.58;17.73;;;;;;;;;;8324153;28;20463;-70
2021/04/12 19:43:15;;;;;;;32.65;15.93;;;;;;;;;;8324282;28;20044;-70
2021/04/12 19:48:15;;;;;;;33.03;15.25;;;;;;;;;;8322556;28;20463;-70
2021/04/12 19:52:30;;;;;;;107.13;34.08;;;;;;;;;;8265504;28;20362;-70
2021/04/12 19:56:56;;;;;;;34.60;17.25;;;;;;;;;;8325168;28;20382;-71
2021/04/12 20:01:09;;;;;;;98.22;26.90;;;;;;;;;;8323571;28;20494;-70
2021/04/12 20:05:41;;;;;;;80.95;26.20;;;;;;;;;;8325237;28;20356;-70
2021/04/12 20:10:37;;;;;;;39.42;18.15;;;;;;;;;;8327179;28;20366;-70
2021/04/12 20:14:59;;;;;;;92.53;30.88;;;;;;;;;;8322306;28;20081;-70
2021/04/12 20:19:20;;;;;;;57.80;21.45;;;;;;;;;;8317390;28;20451;-70
2021/04/12 20:23:31;;;;;;;60.15;20.63;;;;;;;;;;8333010;28;20367;-70
2021/04/12 20:27:59;;;;;;;56.22;20.15;;;;;;;;;;8333244;28;20368;-70
2021/04/12 20:32:25;;;;;;;24.55;12.75;;;;;;;;;;8334337;28;20350;-70
2021/04/12 20:36:56;;;;;;;17.38;9.73;;;;;;;;;;8334218;28;20354;-70
2021/04/12 20:41:19;;;;;;;21.73;10.68;;;;;;;;;;8334887;28;20056;-70
2021/04/12 20:46:18;;;;;;;18.75;10.15;;;;;;;;;;8334065;28;20477;-70
2021/04/12 20:50:32;;;;;;;19.20;10.30;;;;;;;;;;8325717;28;20366;-71
2021/04/12 20:54:47;;;;;;;22.15;11.82;;;;;;;;;;8332465;28;20416;-70
2021/04/12 20:59:20;;;;;;;18.27;11.02;;;;;;;;;;8332152;28;20368;-71
2021/04/12 21:04:03;;;;;;;15.93;8.98;;;;;;;;;;8333227;28;20496;-71
2021/04/12 21:08:31;;;;;;;17.83;9.88;;;;;;;;;;8332913;28;20056;-70
2021/04/12 21:12:45;;;;;;;22.83;10.93;;;;;;;;;;8332846;28;20363;-70
2021/04/12 21:17:10;;;;;;;19.80;11.02;;;;;;;;;;8331953;28;20397;-70
2021/04/12 21:21:26;;;;;;;17.73;9.55;;;;;;;;;;8327496;28;20443;-70
2021/04/12 21:25:32;;;;;;;18.20;9.73;;;;;;;;;;8330081;28;20316;-70
2021/04/12 21:29:41;;;;;;;18.35;10.15;;;;;;;;;;8326174;28;20360;-70
2021/04/12 21:33:59;;;;;;;17.27;10.13;;;;;;;;;;8326714;28;20359;-69
2021/04/12 21:38:15;;;;;;;19.77;9.93;;;;;;;;;;8328897;28;20405;-70
2021/04/12 21:42:56;;;;;;;21.42;10.63;;;;;;;;;;8325806;28;20461;-71
2021/04/12 21:47:17;;;;;;;22.60;11.20;;;;;;;;;;8325217;28;20142;-72
2021/04/12 21:51:30;;;;;;;23.17;12.07;;;;;;;;;;8327675;28;20383;-72
2021/04/12 21:55:57;;;;;;;20.85;11.80;;;;;;;;;;8327029;28;20472;-72
2021/04/12 22:00:07;;;;;;;21.05;11.48;;;;;;;;;;8310848;28;20507;-71
2021/04/12 22:04:23;;;;;;;22.40;12.18;;;;;;;;;;8326670;28;20371;-71
2021/04/12 22:09:09;;;;;;;17.70;9.38;;;;;;;;;;8325514;28;20413;-72
2021/04/12 22:13:18;;;;;;;19.02;9.68;;;;;;;;;;8308937;28;20146;-71
2021/04/12 22:18:02;;;;;;;16.75;9.35;;;;;;;;;;8324210;28;20421;-71
2021/04/12 22:22:37;;;;;;;14.43;8.70;;;;;;;;;;8326860;28;20114;-71
2021/04/12 22:27:05;;;;;;;17.83;8.85;;;;;;;;;;8320359;28;20055;-71
2021/04/12 22:31:39;;;;;;;14.18;8.80;;;;;;;;;;8325670;28;20481;-71
2021/04/12 22:41:10;;;;;;;15.15;9.05;;;;;;;;;;8325595;28;20450;-70
2021/04/12 22:45:33;;;;;;;13.65;9.10;;;;;;;;;;8325772;28;20470;-70
2021/04/12 22:49:46;;;;;;;15.90;8.23;;;;;;;;;;8324920;28;20514;-72
2021/04/12 22:54:22;;;;;;;10.57;6.93;;;;;;;;;;8326600;28;20079;-71
2021/04/12 22:59:06;;;;;;;9.13;5.47;;;;;;;;;;8323982;28;20443;-71
2021/04/12 23:03:25;;;;;;;8.95;5.30;;;;;;;;;;8325117;28;20507;-70
2021/04/12 23:07:40;;;;;;;9.77;4.23;;;;;;;;;;8326800;28;20413;-71
2021/04/12 23:11:46;;;;;;;8.50;4.72;;;;;;;;;;8325888;28;20475;-72
2021/04/12 23:15:52;;;;;;;8.82;4.57;;;;;;;;;;8323700;28;20340;-71
2021/04/12 23:19:58;;;;;;;6.32;3.33;;;;;;;;;;8323224;28;20482;-72
2021/04/12 23:24:44;;;;;;;5.78;3.80;;;;;;;;;;8322768;28;20047;-73
2021/04/12 23:28:52;;;;;;;10.50;5.63;;;;;;;;;;8295026;28;20414;-73
2021/04/12 23:32:57;;;;;;;;;;;;;;;;;;8324694;28;20392;-74
2021/04/12 23:37:03;;;;;;;7.68;5.05;;;;;;;;;;8305736;28;20274;-74
2021/04/12 23:41:18;;;;;;;9.85;5.85;;;;;;;;;;8321636;28;20370;-74
2021/04/12 23:45:38;;;;;;;14.02;6.60;;;;;;;;;;8322009;28;20463;-74
2021/04/12 23:49:50;;;;;;;12.10;5.28;;;;;;;;;;8321952;28;20513;-73
2021/04/12 23:53:58;;;;;;;7.43;4.88;;;;;;;;;;8322038;28;20466;-73
2021/04/12 23:58:03;;;;;;;9.40;5.05;;;;;;;;;;8322574;28;20512;-74
